createdAt,value
2022-11-16T00:02:01.051Z,12.20
2022-11-16T00:04:49.134Z,10.50
2022-11-16T00:07:37.107Z,10.50
2022-11-16T00:10:24.919Z,12.30
2022-11-16T00:13:12.485Z,13.10
2022-11-16T00:16:00.512Z,12.60
2022-11-16T00:18:48.180Z,12.50
2022-11-16T00:21:35.864Z,12.30
2022-11-16T00:24:24.163Z,12.50
2022-11-16T00:27:12.144Z,11.60
2022-11-16T00:29:59.891Z,10.00
2022-11-16T00:32:47.517Z,10.40
2022-11-16T00:35:39.876Z,8.00
2022-11-16T00:38:27.702Z,10.30
2022-11-16T00:41:15.511Z,8.50
2022-11-16T00:44:02.861Z,9.40
2022-11-16T00:46:50.747Z,9.10
2022-11-16T00:49:38.707Z,9.10
2022-11-16T00:52:26.281Z,7.00
2022-11-16T00:55:14.730Z,7.50
2022-11-16T00:58:02.189Z,3.80
2022-11-16T01:00:50.701Z,2.80
2022-11-16T01:03:41.271Z,2.50
2022-11-16T01:06:29.457Z,1.90
2022-11-16T01:09:17.147Z,1.70
2022-11-16T01:12:09.876Z,1.30
2022-11-16T01:14:58.666Z,1.10
2022-11-16T01:17:47.071Z,1.40
2022-11-16T01:20:34.503Z,1.30
2022-11-16T01:23:22.103Z,1.20
2022-11-16T01:26:09.943Z,1.10
2022-11-16T01:28:59.891Z,1.30
2022-11-16T01:31:50.629Z,1.20
2022-11-16T01:34:38.465Z,1.10
2022-11-16T01:37:42.385Z,1.40
2022-11-16T01:40:30.194Z,0.90
2022-11-16T01:43:27.294Z,1.20
2022-11-16T01:46:21.873Z,1.30
2022-11-16T01:49:19.644Z,1.00
2022-11-16T01:52:13.421Z,1.10
2022-11-16T01:55:01.532Z,1.00
2022-11-16T01:57:56.609Z,1.20
2022-11-16T02:00:45.042Z,1.00
2022-11-16T02:04:05.057Z,1.10
2022-11-16T02:06:53.010Z,1.10
2022-11-16T02:10:08.676Z,1.00
2022-11-16T02:13:34.929Z,1.00
2022-11-16T02:16:56.208Z,0.80
2022-11-16T02:20:24.412Z,1.10
2022-11-16T02:23:39.365Z,1.00
2022-11-16T02:26:59.247Z,1.00
2022-11-16T02:29:53.580Z,1.20
2022-11-16T02:33:00.703Z,1.00
2022-11-16T02:35:57.132Z,1.10
2022-11-16T02:38:54.367Z,1.30
2022-11-16T02:41:45.862Z,1.00
2022-11-16T02:44:40.288Z,0.80
2022-11-16T02:47:33.441Z,1.00
2022-11-16T02:50:23.911Z,1.20
2022-11-16T02:53:13.532Z,1.10
2022-11-16T02:56:01.286Z,1.20
2022-11-16T02:58:48.728Z,0.90
2022-11-16T03:01:44.823Z,0.90
2022-11-16T03:04:41.874Z,1.00
2022-11-16T03:07:39.037Z,1.20
2022-11-16T03:10:49.795Z,0.90
2022-11-16T03:13:39.914Z,0.90
2022-11-16T03:16:44.969Z,1.00
2022-11-16T03:19:44.017Z,0.80
2022-11-16T03:22:46.159Z,0.90
2022-11-16T03:25:49.019Z,1.10
2022-11-16T03:28:52.342Z,1.00
2022-11-16T03:31:51.927Z,1.30
2022-11-16T03:34:43.111Z,0.90
2022-11-16T03:37:32.111Z,1.20
2022-11-16T03:40:23.171Z,1.00
2022-11-16T03:43:11.606Z,1.00
2022-11-16T03:46:01.040Z,1.00
2022-11-16T03:48:48.593Z,1.40
2022-11-16T03:51:42.968Z,1.30
2022-11-16T03:54:30.807Z,1.00
2022-11-16T03:57:18.746Z,1.00
2022-11-16T04:00:12.737Z,0.90
2022-11-16T04:03:03.214Z,1.30
2022-11-16T04:06:09.061Z,3.20
2022-11-16T04:09:15.238Z,1.60
2022-11-16T04:12:21.437Z,1.10
2022-11-16T04:15:29.077Z,1.00
2022-11-16T04:18:35.735Z,1.20
2022-11-16T04:21:59.259Z,2.00
2022-11-16T04:24:56.024Z,3.00
2022-11-16T04:28:03.257Z,2.30
2022-11-16T04:31:15.578Z,1.70
2022-11-16T04:34:25.790Z,2.10
2022-11-16T04:37:37.678Z,2.20
2022-11-16T04:40:30.798Z,1.80
2022-11-16T04:43:32.077Z,1.00
2022-11-16T04:46:38.297Z,1.60
2022-11-16T04:49:26.735Z,1.50
2022-11-16T04:52:15.986Z,1.40
2022-11-16T04:55:04.614Z,1.30
2022-11-16T04:57:53.422Z,1.60
2022-11-16T05:00:41.727Z,1.30
2022-11-16T05:03:29.857Z,1.40
2022-11-16T05:06:17.343Z,1.90
2022-11-16T05:09:05.560Z,1.70
2022-11-16T05:11:53.828Z,1.90
2022-11-16T05:14:42.929Z,1.80
2022-11-16T05:17:30.595Z,1.90
2022-11-16T05:20:45.517Z,1.50
2022-11-16T05:23:52.139Z,1.50
2022-11-16T05:26:41.500Z,2.50
2022-11-16T05:29:29.104Z,2.50
2022-11-16T05:32:18.725Z,2.10
2022-11-16T05:35:07.044Z,2.20
2022-11-16T05:37:54.704Z,1.80
2022-11-16T05:40:43.082Z,2.00
2022-11-16T05:43:31.376Z,2.10
2022-11-16T05:46:33.746Z,2.20
2022-11-16T05:49:22.907Z,2.20
2022-11-16T05:52:10.708Z,2.10
2022-11-16T05:54:58.850Z,2.20
2022-11-16T05:57:47.928Z,2.00
2022-11-16T06:00:36.115Z,1.80
2022-11-16T06:03:24.379Z,2.30
2022-11-16T06:06:12.282Z,2.40
2022-11-16T06:09:00.002Z,1.80
2022-11-16T06:11:47.953Z,2.00
2022-11-16T06:14:35.428Z,2.20
2022-11-16T06:17:22.743Z,2.10
2022-11-16T06:20:11.396Z,1.90
2022-11-16T06:22:58.956Z,1.80
2022-11-16T06:25:53.605Z,1.70
2022-11-16T06:28:41.507Z,2.00
2022-11-16T06:31:30.755Z,2.10
2022-11-16T06:34:19.246Z,2.20
2022-11-16T06:37:06.685Z,1.70
2022-11-16T06:39:54.729Z,1.60
2022-11-16T06:42:43.528Z,1.80
2022-11-16T06:45:31.917Z,1.80
2022-11-16T06:48:21.651Z,1.80
2022-11-16T06:51:09.929Z,1.70
2022-11-16T06:53:57.826Z,2.00
2022-11-16T06:56:45.501Z,1.90
2022-11-16T06:59:32.801Z,2.30
2022-11-16T07:02:21.495Z,1.80
2022-11-16T07:05:09.664Z,1.80
2022-11-16T07:07:58.107Z,2.10
2022-11-16T07:10:46.044Z,1.70
2022-11-16T07:13:36.487Z,2.00
2022-11-16T07:16:24.480Z,1.70
2022-11-16T07:19:16.250Z,1.70
2022-11-16T07:22:04.400Z,2.10
2022-11-16T07:24:52.453Z,1.80
2022-11-16T07:27:40.553Z,2.20
2022-11-16T07:30:28.224Z,2.80
2022-11-16T07:33:21.818Z,2.20
2022-11-16T07:36:41.403Z,2.10
2022-11-16T07:39:29.952Z,2.50
2022-11-16T07:42:18.370Z,2.30
2022-11-16T07:45:12.977Z,2.20
2022-11-16T07:48:05.071Z,2.60
2022-11-16T07:51:15.929Z,2.40
2022-11-16T07:54:08.431Z,2.80
2022-11-16T07:56:55.969Z,3.30
2022-11-16T07:59:44.145Z,2.40
2022-11-16T08:02:34.674Z,2.60
2022-11-16T08:05:22.641Z,2.60
2022-11-16T08:08:12.217Z,2.70
2022-11-16T08:11:03.790Z,2.40
2022-11-16T08:13:51.687Z,2.20
2022-11-16T08:16:39.803Z,2.30
2022-11-16T08:19:30.816Z,2.40
2022-11-16T08:22:18.734Z,2.20
2022-11-16T08:25:07.487Z,2.50
2022-11-16T08:27:56.195Z,11.70
2022-11-16T08:30:45.579Z,3.90
2022-11-16T08:33:34.856Z,6.90
2022-11-16T08:36:23.329Z,10.00
2022-11-16T08:39:11.279Z,7.10
2022-11-16T08:42:01.376Z,2.50
2022-11-16T08:44:49.475Z,7.50
2022-11-16T08:47:39.504Z,4.20
2022-11-16T08:50:28.342Z,4.00
2022-11-16T08:53:16.518Z,4.20
2022-11-16T08:56:12.519Z,2.30
2022-11-16T08:59:01.351Z,2.70
2022-11-16T09:01:50.294Z,2.60
2022-11-16T09:04:37.931Z,2.20
2022-11-16T09:07:25.526Z,2.00
2022-11-16T09:10:14.163Z,1.70
2022-11-16T09:13:01.673Z,1.90
2022-11-16T09:15:56.060Z,1.50
2022-11-16T09:18:46.403Z,1.70
2022-11-16T09:21:36.177Z,1.90
2022-11-16T09:24:23.766Z,2.00
2022-11-16T09:27:11.550Z,1.90
2022-11-16T09:29:59.240Z,1.50
2022-11-16T09:32:46.839Z,1.40
2022-11-16T09:35:35.302Z,1.50
2022-11-16T09:38:39.919Z,1.30
2022-11-16T09:42:19.557Z,1.50
2022-11-16T09:45:22.969Z,1.40
2022-11-16T09:48:14.808Z,1.40
2022-11-16T09:51:08.297Z,1.70
2022-11-16T09:54:03.582Z,1.40
2022-11-16T09:56:57.421Z,1.30
2022-11-16T09:59:52.010Z,1.10
2022-11-16T10:02:58.184Z,1.40
2022-11-16T10:06:08.219Z,1.80
2022-11-16T10:08:58.595Z,1.30
2022-11-16T10:12:04.262Z,1.40
2022-11-16T10:15:31.649Z,1.10
2022-11-16T10:18:39.815Z,1.60
2022-11-16T10:22:06.314Z,1.60
2022-11-16T10:25:09.029Z,1.60
2022-11-16T10:28:46.910Z,2.00
2022-11-16T10:31:54.201Z,1.40
2022-11-16T10:34:54.503Z,1.60
2022-11-16T10:37:48.979Z,1.50
2022-11-16T10:40:38.575Z,1.40
2022-11-16T10:43:30.216Z,1.20
2022-11-16T10:46:23.803Z,1.40
2022-11-16T10:49:27.288Z,1.70
2022-11-16T10:52:14.983Z,1.70
2022-11-16T10:55:02.963Z,1.60
2022-11-16T10:58:02.343Z,1.80
2022-11-16T11:00:53.637Z,2.30
2022-11-16T11:03:41.394Z,1.80
2022-11-16T11:06:29.338Z,1.70
2022-11-16T11:09:35.782Z,1.40
2022-11-16T11:12:38.301Z,1.80
2022-11-16T11:15:29.444Z,1.30
2022-11-16T11:18:29.864Z,1.40
2022-11-16T11:21:20.991Z,1.40
2022-11-16T11:24:43.497Z,1.60
2022-11-16T11:27:33.823Z,1.80
2022-11-16T11:30:22.708Z,1.70
2022-11-16T11:33:12.662Z,1.50
2022-11-16T11:36:30.832Z,1.50
2022-11-16T11:39:21.567Z,3.30
2022-11-16T11:42:12.451Z,4.60
2022-11-16T11:45:08.717Z,4.30
2022-11-16T11:48:12.220Z,2.90
2022-11-16T11:51:12.165Z,2.20
2022-11-16T11:54:02.774Z,2.10
2022-11-16T11:56:50.721Z,1.80
2022-11-16T11:59:38.666Z,1.90
2022-11-16T12:02:47.817Z,2.40
2022-11-16T12:06:19.240Z,1.80
2022-11-16T12:09:31.589Z,2.30
2022-11-16T12:13:12.563Z,2.10
2022-11-16T12:16:11.409Z,1.70
2022-11-16T12:19:32.977Z,1.60
2022-11-16T12:22:29.332Z,1.60
2022-11-16T12:25:26.766Z,1.60
2022-11-16T12:28:29.123Z,1.90
2022-11-16T12:31:39.336Z,1.90
2022-11-16T12:34:53.181Z,1.60
2022-11-16T12:37:44.394Z,1.50
2022-11-16T12:41:00.328Z,1.60
2022-11-16T12:43:56.882Z,1.70
2022-11-16T12:47:35.550Z,1.50
2022-11-16T12:50:35.250Z,1.50
2022-11-16T12:53:51.400Z,1.50
2022-11-16T12:57:04.074Z,1.60
2022-11-16T13:00:06.924Z,1.70
2022-11-16T13:03:52.983Z,2.10
2022-11-16T13:06:47.206Z,1.60
2022-11-16T13:09:41.052Z,1.40
2022-11-16T13:12:30.910Z,2.20
2022-11-16T13:15:22.915Z,2.00
2022-11-16T13:18:20.534Z,1.50
2022-11-16T13:21:20.809Z,1.70
2022-11-16T13:24:46.840Z,1.90
2022-11-16T13:28:14.568Z,1.60
2022-11-16T13:31:11.797Z,1.80
2022-11-16T13:34:05.529Z,1.40
2022-11-16T13:36:53.431Z,1.50
2022-11-16T13:39:50.565Z,1.60
2022-11-16T13:43:01.111Z,1.40
2022-11-16T13:46:00.137Z,2.90
2022-11-16T13:48:48.366Z,3.40
2022-11-16T13:51:36.255Z,2.40
2022-11-16T13:54:45.199Z,1.90
2022-11-16T13:57:34.744Z,2.30
2022-11-16T14:00:36.454Z,2.40
2022-11-16T14:03:30.256Z,1.70
2022-11-16T14:06:23.873Z,2.10
2022-11-16T14:09:49.282Z,1.70
2022-11-16T14:12:53.339Z,2.00
2022-11-16T14:15:40.715Z,1.60
2022-11-16T14:18:37.135Z,1.60
2022-11-16T14:22:08.331Z,1.80
2022-11-16T14:25:13.666Z,2.00
2022-11-16T14:28:24.370Z,2.30
2022-11-16T14:31:47.278Z,1.80
2022-11-16T14:34:48.201Z,1.80
2022-11-16T14:37:40.323Z,1.50
2022-11-16T14:40:28.329Z,1.90
2022-11-16T14:43:30.492Z,1.10
2022-11-16T14:46:26.182Z,1.50
2022-11-16T14:49:17.616Z,1.40
2022-11-16T14:52:08.339Z,1.70
2022-11-16T14:55:04.979Z,2.00
2022-11-16T14:58:25.570Z,2.20
2022-11-16T15:01:20.943Z,1.80
2022-11-16T15:04:11.257Z,2.10
2022-11-16T15:07:03.923Z,2.10
2022-11-16T15:09:56.841Z,2.00
2022-11-16T15:12:51.549Z,1.90
2022-11-16T15:15:39.246Z,2.40
2022-11-16T15:18:26.722Z,2.60
2022-11-16T15:21:23.612Z,2.50
2022-11-16T15:24:30.621Z,2.70
2022-11-16T15:27:45.674Z,2.50
2022-11-16T15:30:37.546Z,1.70
2022-11-16T15:33:35.913Z,1.90
2022-11-16T15:36:26.836Z,2.10
2022-11-16T15:39:32.720Z,1.60
2022-11-16T15:42:23.402Z,1.40
2022-11-16T15:45:23.547Z,1.70
2022-11-16T15:48:22.845Z,1.40
2022-11-16T15:51:17.793Z,1.60
2022-11-16T15:54:30.685Z,1.90
2022-11-16T15:57:23.352Z,1.90
2022-11-16T16:00:22.944Z,1.40
2022-11-16T16:03:27.537Z,1.80
2022-11-16T16:06:45.340Z,1.40
2022-11-16T16:09:40.981Z,1.60
2022-11-16T16:12:29.469Z,1.50
2022-11-16T16:15:30.114Z,1.60
2022-11-16T16:18:39.988Z,1.80
2022-11-16T16:21:48.343Z,1.90
2022-11-16T16:24:47.560Z,2.00
2022-11-16T16:27:41.308Z,2.20
2022-11-16T16:30:31.088Z,2.40
2022-11-16T16:33:22.044Z,2.00
2022-11-16T16:36:11.815Z,2.40
2022-11-16T16:38:59.094Z,2.40
2022-11-16T16:41:46.739Z,1.90
2022-11-16T16:44:34.750Z,2.30
2022-11-16T16:47:22.425Z,2.30
2022-11-16T16:50:10.255Z,2.20
2022-11-16T16:52:58.109Z,2.50
2022-11-16T16:55:49.024Z,2.50
2022-11-16T16:58:41.755Z,2.10
2022-11-16T17:01:29.690Z,1.90
2022-11-16T17:04:24.404Z,2.30
2022-11-16T17:07:12.710Z,1.90
2022-11-16T17:10:03.128Z,2.70
2022-11-16T17:12:54.380Z,2.70
2022-11-16T17:15:52.807Z,1.90
2022-11-16T17:18:46.668Z,2.00
2022-11-16T17:21:34.800Z,2.30
2022-11-16T17:24:22.385Z,1.90
2022-11-16T17:27:10.380Z,1.90
2022-11-16T17:29:58.495Z,2.20
2022-11-16T17:32:46.271Z,1.70
2022-11-16T17:35:34.274Z,1.60
2022-11-16T17:38:22.270Z,1.60
2022-11-16T17:41:18.091Z,2.00
2022-11-16T17:44:06.414Z,1.90
2022-11-16T17:46:54.046Z,2.20
2022-11-16T17:49:41.713Z,1.90
2022-11-16T17:52:29.697Z,1.90
2022-11-16T17:55:18.980Z,1.80
2022-11-16T17:58:11.126Z,2.00
2022-11-16T18:00:59.117Z,1.40
2022-11-16T18:03:48.312Z,1.90
2022-11-16T18:06:36.412Z,1.60
2022-11-16T18:09:24.760Z,1.70
2022-11-16T18:12:12.311Z,1.50
2022-11-16T18:15:26.286Z,1.90
2022-11-16T18:18:07.388Z,1.80
2022-11-16T18:20:55.076Z,2.10
2022-11-16T18:23:43.079Z,1.70
2022-11-16T18:26:31.372Z,1.80
2022-11-16T18:29:19.543Z,2.10
2022-11-16T18:32:07.347Z,2.00
2022-11-16T18:34:55.042Z,1.90
2022-11-16T18:37:43.099Z,2.20
2022-11-16T18:40:30.772Z,2.70
2022-11-16T18:43:18.701Z,2.00
2022-11-16T18:46:07.339Z,2.00
2022-11-16T18:48:56.186Z,1.90
2022-11-16T18:51:44.068Z,1.80
2022-11-16T18:54:31.455Z,2.40
2022-11-16T18:57:18.926Z,2.00
2022-11-16T19:00:07.810Z,2.20
2022-11-16T19:02:55.370Z,2.00
2022-11-16T19:05:44.288Z,2.00
2022-11-16T19:08:33.402Z,2.00
2022-11-16T19:11:22.763Z,2.20
2022-11-16T19:14:10.899Z,2.20
2022-11-16T19:17:05.367Z,2.00
2022-11-16T19:19:53.880Z,1.90
2022-11-16T19:22:42.019Z,1.90
2022-11-16T19:25:29.976Z,2.00
2022-11-16T19:28:17.931Z,2.10
2022-11-16T19:31:19.447Z,1.80
2022-11-16T19:34:12.283Z,1.70
2022-11-16T19:37:00.084Z,1.90
2022-11-16T19:39:47.944Z,1.80
2022-11-16T19:42:36.100Z,2.10
2022-11-16T19:45:25.018Z,2.30
2022-11-16T19:48:13.470Z,2.10
2022-11-16T19:51:09.807Z,2.10
2022-11-16T19:54:02.126Z,1.90
2022-11-16T19:56:54.871Z,2.10
2022-11-16T19:59:43.925Z,2.00
2022-11-16T20:02:32.624Z,2.50
2022-11-16T20:05:21.697Z,1.90
2022-11-16T20:08:11.171Z,2.60
2022-11-16T20:10:59.334Z,1.90
2022-11-16T20:13:49.459Z,1.90
2022-11-16T20:16:40.625Z,2.50
2022-11-16T20:19:28.874Z,2.30
2022-11-16T20:22:17.076Z,2.50
2022-11-16T20:25:05.550Z,2.60
2022-11-16T20:27:54.327Z,2.40
2022-11-16T20:30:49.739Z,2.40
2022-11-16T20:33:38.541Z,2.60
2022-11-16T20:36:29.664Z,2.20
2022-11-16T20:39:20.452Z,2.50
2022-11-16T20:42:07.820Z,2.10
2022-11-16T20:44:55.572Z,2.20
2022-11-16T20:47:43.709Z,2.40
2022-11-16T20:50:31.476Z,2.30
2022-11-16T20:53:20.176Z,2.50
2022-11-16T20:56:10.581Z,2.20
2022-11-16T20:58:58.758Z,1.90
2022-11-16T21:01:52.464Z,2.30
2022-11-16T21:04:40.504Z,2.50
2022-11-16T21:07:29.449Z,2.00
2022-11-16T21:10:19.940Z,2.20
2022-11-16T21:13:34.674Z,2.40
2022-11-16T21:16:22.840Z,2.10
2022-11-16T21:19:12.521Z,2.40
2022-11-16T21:22:00.429Z,2.70
2022-11-16T21:24:48.331Z,2.00
2022-11-16T21:27:35.764Z,2.00
2022-11-16T21:30:23.237Z,1.90
2022-11-16T21:33:10.957Z,1.80
2022-11-16T21:36:14.400Z,2.00
2022-11-16T21:39:02.134Z,1.90
2022-11-16T21:41:49.728Z,1.90
2022-11-16T21:44:43.780Z,2.10
2022-11-16T21:47:31.403Z,1.80
2022-11-16T21:50:31.683Z,2.20
2022-11-16T21:53:19.518Z,1.80
2022-11-16T21:56:12.893Z,1.80
2022-11-16T21:59:00.442Z,2.10
2022-11-16T22:02:00.169Z,1.70
2022-11-16T22:05:06.268Z,1.70
2022-11-16T22:07:53.852Z,1.60
2022-11-16T22:10:41.252Z,1.60
2022-11-16T22:13:28.897Z,1.60
2022-11-16T22:16:18.866Z,1.70
2022-11-16T22:19:06.197Z,1.80
2022-11-16T22:21:53.944Z,2.00
2022-11-16T22:24:41.647Z,2.00
2022-11-16T22:27:29.462Z,2.30
2022-11-16T22:30:17.068Z,2.10
2022-11-16T22:33:04.606Z,1.80
2022-11-16T22:35:52.547Z,1.80
2022-11-16T22:38:40.437Z,1.90
2022-11-16T22:41:27.845Z,1.80
2022-11-16T22:44:15.402Z,1.80
2022-11-16T22:47:04.550Z,1.80
2022-11-16T22:49:54.695Z,1.80
2022-11-16T22:52:42.594Z,1.80
2022-11-16T22:55:30.877Z,1.60
2022-11-16T22:58:18.535Z,2.00
2022-11-16T23:01:08.863Z,1.70
2022-11-16T23:03:56.595Z,2.10
2022-11-16T23:06:43.873Z,1.90
2022-11-16T23:09:32.690Z,2.10
2022-11-16T23:12:38.806Z,1.90
2022-11-16T23:15:45.144Z,1.80
2022-11-16T23:18:32.830Z,2.20
2022-11-16T23:21:39.760Z,1.90
2022-11-16T23:24:49.272Z,2.40
2022-11-16T23:27:44.919Z,1.80
2022-11-16T23:30:33.849Z,1.90
2022-11-16T23:33:41.421Z,2.00
2022-11-16T23:36:29.028Z,2.00
2022-11-16T23:39:16.744Z,2.20
2022-11-16T23:42:23.550Z,1.80
2022-11-16T23:45:11.495Z,2.10
2022-11-16T23:47:59.495Z,1.90
2022-11-16T23:50:47.321Z,2.20
2022-11-16T23:53:35.169Z,2.00
2022-11-16T23:56:24.022Z,2.20
2022-11-16T23:59:11.771Z,1.90
